Terminal Aerodrome Forecast
Issued by NWS Birmingham, AL

Home | Current Version | Previous Version | Text Only | Print | Product List | Glossary On
Versions: 1 2 3 4 5 6 7 8 9 10 11 12 13 14 15 16 17
000
FTUS44 KBMX 122300
TAFBHM
TAF
KBHM 122320Z 1300/1324 12006KT P6SM VCSH SCT060
     FM130100 VRB03KT P6SM FEW060
     FM131600 19005KT P6SM SCT040=

USA.gov is the U.S. government's official web portal to all federal, state and local government web resources and services.